createdAt,value
2022-12-04T00:01:11.891Z,88.79
2022-12-04T00:03:39.659Z,89.96
2022-12-04T00:06:07.791Z,89.69
2022-12-04T00:08:35.334Z,90.42
2022-12-04T00:11:05.016Z,89.25
2022-12-04T00:13:33.330Z,89.99
2022-12-04T00:16:00.731Z,89.78
2022-12-04T00:18:28.327Z,89.80
2022-12-04T00:20:55.477Z,89.49
2022-12-04T00:23:22.771Z,89.40
2022-12-04T00:25:49.971Z,89.43
2022-12-04T00:28:18.736Z,89.52
2022-12-04T00:30:46.786Z,88.96
2022-12-04T00:33:14.320Z,89.83
2022-12-04T00:35:41.736Z,89.28
2022-12-04T00:38:08.857Z,89.74
2022-12-04T00:40:35.921Z,90.33
2022-12-04T00:43:03.884Z,90.00
2022-12-04T00:45:31.059Z,90.71
2022-12-04T00:47:58.140Z,88.77
2022-12-04T00:50:25.270Z,90.46
2022-12-04T00:52:52.386Z,89.43
2022-12-04T00:55:19.460Z,89.67
2022-12-04T00:57:46.805Z,88.85
2022-12-04T01:00:14.149Z,90.41
2022-12-04T01:02:41.376Z,89.96
2022-12-04T01:05:08.998Z,90.72
2022-12-04T01:07:36.688Z,89.38
2022-12-04T01:10:08.382Z,89.77
2022-12-04T01:12:36.822Z,89.99
2022-12-04T01:15:05.244Z,89.62
2022-12-04T01:17:32.329Z,90.45
2022-12-04T01:19:59.446Z,90.37
2022-12-04T01:22:26.560Z,90.37
2022-12-04T01:24:57.014Z,91.59
2022-12-04T01:27:24.382Z,89.98
2022-12-04T01:29:51.492Z,89.21
2022-12-04T01:32:18.607Z,90.81
2022-12-04T01:34:45.678Z,89.62
2022-12-04T01:37:12.793Z,90.33
2022-12-04T01:39:39.906Z,90.17
2022-12-04T01:42:07.084Z,89.90
2022-12-04T01:44:34.215Z,90.20
2022-12-04T01:47:01.888Z,90.32
2022-12-04T01:49:44.361Z,89.83
2022-12-04T01:52:24.551Z,90.45
2022-12-04T01:55:00.185Z,90.03
2022-12-04T01:57:31.837Z,89.64
2022-12-04T02:00:17.395Z,89.54
2022-12-04T02:02:47.509Z,90.57
2022-12-04T02:05:19.667Z,90.61
2022-12-04T02:07:50.290Z,89.86
2022-12-04T02:10:24.515Z,90.18
2022-12-04T02:13:13.469Z,89.78
2022-12-04T02:16:12.272Z,90.16
2022-12-04T02:19:06.588Z,89.92
2022-12-04T02:21:39.347Z,90.00
2022-12-04T02:24:53.276Z,90.01
2022-12-04T02:27:41.617Z,89.65
2022-12-04T02:30:16.047Z,90.51
2022-12-04T02:33:08.243Z,90.07
2022-12-04T02:35:44.710Z,91.94
2022-12-04T02:38:27.299Z,90.77
2022-12-04T02:41:01.208Z,90.46
2022-12-04T02:43:43.949Z,90.77
2022-12-04T02:46:17.576Z,90.80
2022-12-04T02:48:49.887Z,89.93
2022-12-04T02:51:20.680Z,90.37
2022-12-04T02:53:57.321Z,90.12
2022-12-04T02:56:30.132Z,89.85
2022-12-04T02:59:07.139Z,89.66
2022-12-04T03:01:40.650Z,90.45
2022-12-04T03:04:21.000Z,90.21
2022-12-04T03:06:59.861Z,90.35
2022-12-04T03:09:42.764Z,91.27
2022-12-04T03:12:21.903Z,90.48
2022-12-04T03:15:03.743Z,89.88
2022-12-04T03:17:37.655Z,89.89
2022-12-04T03:20:12.124Z,90.74
2022-12-04T03:22:44.063Z,90.77
2022-12-04T03:25:11.628Z,89.67
2022-12-04T03:28:07.498Z,90.83
2022-12-04T03:30:47.060Z,90.45
2022-12-04T03:33:20.258Z,90.53
2022-12-04T03:35:58.145Z,90.54
2022-12-04T03:38:44.554Z,90.34
2022-12-04T03:41:59.758Z,91.18
2022-12-04T03:44:41.706Z,90.85
2022-12-04T03:47:26.321Z,90.69
2022-12-04T03:50:09.761Z,91.21
2022-12-04T03:53:25.063Z,89.86
2022-12-04T03:56:11.538Z,89.74
2022-12-04T03:58:49.710Z,91.78
2022-12-04T04:01:23.222Z,92.09
2022-12-04T04:03:54.906Z,90.56
2022-12-04T04:06:32.723Z,90.31
2022-12-04T04:09:07.495Z,90.54
2022-12-04T04:11:47.967Z,90.35
2022-12-04T04:14:49.807Z,90.71
2022-12-04T04:17:40.947Z,90.32
2022-12-04T04:20:39.634Z,91.06
2022-12-04T04:23:28.283Z,91.75
2022-12-04T04:25:58.513Z,90.24
2022-12-04T04:28:42.174Z,90.64
2022-12-04T04:31:24.554Z,90.73
2022-12-04T04:34:20.045Z,90.61
2022-12-04T04:37:08.960Z,90.22
2022-12-04T04:39:57.259Z,91.01
2022-12-04T04:42:38.358Z,90.75
2022-12-04T04:45:15.762Z,90.67
2022-12-04T04:48:03.005Z,90.39
2022-12-04T04:50:31.856Z,91.49
2022-12-04T04:53:05.378Z,91.09
2022-12-04T04:55:34.629Z,91.30
2022-12-04T04:58:15.420Z,91.31
2022-12-04T05:00:57.034Z,91.09
2022-12-04T05:03:24.817Z,91.01
2022-12-04T05:05:52.111Z,91.01
2022-12-04T05:08:19.257Z,90.80
2022-12-04T05:10:46.452Z,90.95
2022-12-04T05:13:14.602Z,91.33
2022-12-04T05:15:42.248Z,91.34
2022-12-04T05:18:09.469Z,91.48
2022-12-04T05:20:40.575Z,91.07
2022-12-04T05:23:07.672Z,91.04
2022-12-04T05:25:34.770Z,91.16
2022-12-04T05:28:01.831Z,90.45
2022-12-04T05:30:28.949Z,90.76
2022-12-04T05:32:56.096Z,90.98
2022-12-04T05:35:23.212Z,91.35
2022-12-04T05:37:50.267Z,90.60
2022-12-04T05:40:17.428Z,90.68
2022-12-04T05:42:44.555Z,91.21
2022-12-04T05:45:11.710Z,91.24
2022-12-04T05:47:40.863Z,92.17
2022-12-04T05:50:10.846Z,91.05
2022-12-04T05:52:38.119Z,91.81
2022-12-04T05:55:07.136Z,90.60
2022-12-04T05:57:34.258Z,90.97
2022-12-04T06:00:01.333Z,90.32
2022-12-04T06:02:28.712Z,90.56
2022-12-04T06:04:55.805Z,90.68
2022-12-04T06:07:22.885Z,91.48
2022-12-04T06:09:49.938Z,91.14
2022-12-04T06:12:17.070Z,91.25
2022-12-04T06:14:44.188Z,90.81
2022-12-04T06:17:11.252Z,90.89
2022-12-04T06:19:38.357Z,90.64
2022-12-04T06:22:05.441Z,90.71
2022-12-04T06:24:32.528Z,91.04
2022-12-04T06:29:47.928Z,91.71
2022-12-04T06:32:19.717Z,91.52
2022-12-04T06:34:53.430Z,91.22
2022-12-04T06:37:23.337Z,90.48
2022-12-04T06:39:50.684Z,91.22
2022-12-04T06:42:17.758Z,91.86
2022-12-04T06:44:44.943Z,90.88
2022-12-04T06:47:12.157Z,91.08
2022-12-04T06:49:39.353Z,91.05
2022-12-04T06:52:06.414Z,90.72
2022-12-04T06:54:33.528Z,91.24
2022-12-04T06:57:00.590Z,90.73
2022-12-04T06:59:27.962Z,91.18
2022-12-04T07:01:55.103Z,91.96
2022-12-04T07:04:23.286Z,90.82
2022-12-04T07:06:50.410Z,90.93
2022-12-04T07:09:18.455Z,90.92
2022-12-04T07:11:46.082Z,90.48
2022-12-04T07:14:13.864Z,91.32
2022-12-04T07:16:42.569Z,90.51
2022-12-04T07:19:12.737Z,91.49
2022-12-04T07:21:40.506Z,90.82
2022-12-04T07:24:07.748Z,91.33
2022-12-04T07:26:34.818Z,91.24
2022-12-04T07:29:01.951Z,91.02
2022-12-04T07:31:30.276Z,90.74
2022-12-04T07:33:58.954Z,91.52
2022-12-04T07:36:26.913Z,91.74
2022-12-04T07:38:56.657Z,90.78
2022-12-04T07:41:24.494Z,91.69
2022-12-04T07:43:51.707Z,91.33
2022-12-04T07:46:26.020Z,91.07
2022-12-04T07:48:56.593Z,90.87
2022-12-04T07:51:27.454Z,91.53
2022-12-04T07:54:02.080Z,91.30
2022-12-04T07:56:30.619Z,90.99
2022-12-04T07:58:57.716Z,91.10
2022-12-04T08:01:24.979Z,91.50
2022-12-04T08:03:55.826Z,91.47
2022-12-04T08:06:25.158Z,91.24
2022-12-04T08:08:53.301Z,91.46
2022-12-04T08:11:23.807Z,91.75
2022-12-04T08:14:02.282Z,90.56
2022-12-04T08:16:32.373Z,91.93
2022-12-04T08:19:00.148Z,91.23
2022-12-04T08:21:30.098Z,90.61
2022-12-04T08:23:59.043Z,90.98
2022-12-04T08:26:28.565Z,90.78
2022-12-04T08:28:57.308Z,90.98
2022-12-04T08:31:28.140Z,91.03
2022-12-04T08:33:58.975Z,90.98
2022-12-04T08:36:27.367Z,91.10
2022-12-04T08:38:55.530Z,90.49
2022-12-04T08:41:26.073Z,90.60
2022-12-04T08:43:55.407Z,90.96
2022-12-04T08:46:24.910Z,91.16
2022-12-04T08:48:52.396Z,90.96
2022-12-04T08:51:23.958Z,92.27
2022-12-04T08:54:00.839Z,90.70
2022-12-04T08:56:30.139Z,91.65
2022-12-04T08:58:59.037Z,91.15
2022-12-04T09:01:28.017Z,91.64
2022-12-04T09:03:56.159Z,91.50
2022-12-04T09:06:24.035Z,92.14
2022-12-04T09:08:55.665Z,91.99
2022-12-04T09:11:26.391Z,92.09
2022-12-04T09:13:54.019Z,92.10
2022-12-04T09:16:24.231Z,91.92
2022-12-04T09:18:51.721Z,91.43
2022-12-04T09:21:22.790Z,91.94
2022-12-04T09:23:50.038Z,91.94
2022-12-04T09:26:28.353Z,91.90
2022-12-04T09:28:57.865Z,91.97
2022-12-04T09:31:25.742Z,92.77
2022-12-04T09:33:53.455Z,93.04
2022-12-04T09:36:21.389Z,92.28
2022-12-04T09:38:52.050Z,92.99
2022-12-04T09:41:46.812Z,92.11
2022-12-04T09:44:27.935Z,93.04
2022-12-04T09:47:04.038Z,92.63
2022-12-04T09:50:04.190Z,92.63
2022-12-04T09:53:02.672Z,92.48
2022-12-04T09:55:49.968Z,93.35
2022-12-04T09:58:36.594Z,92.75
2022-12-04T10:01:04.960Z,93.23
2022-12-04T10:03:32.409Z,92.90
2022-12-04T10:06:14.706Z,93.21
2022-12-04T10:08:45.554Z,92.00
2022-12-04T10:11:44.546Z,92.25
2022-12-04T10:14:27.986Z,91.97
2022-12-04T10:17:16.675Z,92.16
2022-12-04T10:20:08.338Z,92.26
2022-12-04T10:23:00.055Z,92.21
2022-12-04T10:25:29.409Z,91.66
2022-12-04T10:28:10.609Z,91.86
2022-12-04T10:30:41.734Z,91.92
2022-12-04T10:33:22.868Z,91.82
2022-12-04T10:35:53.087Z,91.46
2022-12-04T10:38:49.707Z,91.30
2022-12-04T10:41:37.860Z,91.04
2022-12-04T10:44:05.375Z,91.45
2022-12-04T10:46:35.469Z,91.36
2022-12-04T10:49:12.434Z,91.12
2022-12-04T10:51:42.649Z,90.49
2022-12-04T10:54:36.130Z,90.49
2022-12-04T10:57:11.321Z,90.52
2022-12-04T10:59:55.616Z,90.69
2022-12-04T11:02:38.695Z,90.77
2022-12-04T11:05:39.822Z,91.22
2022-12-04T11:08:08.143Z,91.49
2022-12-04T11:10:42.990Z,90.65
2022-12-04T11:13:13.011Z,90.83
2022-12-04T11:15:52.331Z,90.83
2022-12-04T11:18:24.483Z,90.63
2022-12-04T11:21:29.794Z,90.92
2022-12-04T11:23:58.393Z,91.72
2022-12-04T11:26:37.023Z,90.27
2022-12-04T11:29:05.409Z,91.04
2022-12-04T11:31:33.462Z,91.04
2022-12-04T11:34:09.282Z,90.18
2022-12-04T11:36:41.538Z,90.60
2022-12-04T11:39:11.795Z,91.57
2022-12-04T11:41:39.560Z,90.43
2022-12-04T11:44:18.983Z,90.38
2022-12-04T11:46:54.604Z,90.82
2022-12-04T11:49:27.723Z,90.54
2022-12-04T11:52:33.322Z,90.26
2022-12-04T11:55:40.483Z,90.52
2022-12-04T11:58:46.153Z,90.35
2022-12-04T12:01:40.847Z,90.52
2022-12-04T12:04:32.295Z,90.21
2022-12-04T12:08:09.469Z,89.89
2022-12-04T12:11:31.728Z,91.01
2022-12-04T12:14:14.578Z,90.57
2022-12-04T12:17:21.693Z,90.12
2022-12-04T12:20:04.475Z,90.58
2022-12-04T12:22:48.568Z,90.66
2022-12-04T12:25:56.964Z,89.60
2022-12-04T12:29:10.230Z,90.14
2022-12-04T12:32:13.979Z,90.27
2022-12-04T12:34:44.535Z,89.63
2022-12-04T12:37:39.970Z,90.24
2022-12-04T12:40:36.842Z,90.06
2022-12-04T12:43:23.014Z,90.46
2022-12-04T12:46:11.937Z,89.55
2022-12-04T12:49:01.749Z,89.52
2022-12-04T12:51:48.192Z,90.06
2022-12-04T12:54:39.672Z,90.11
2022-12-04T12:57:27.350Z,89.58
2022-12-04T13:00:03.484Z,90.21
2022-12-04T13:02:36.461Z,89.73
2022-12-04T13:05:11.347Z,90.25
2022-12-04T13:07:54.386Z,89.89
2022-12-04T13:10:28.695Z,90.60
2022-12-04T13:13:06.063Z,89.47
2022-12-04T13:15:50.668Z,89.58
2022-12-04T13:18:30.255Z,90.13
2022-12-04T13:21:03.562Z,90.40
2022-12-04T13:23:52.565Z,89.71
2022-12-04T13:26:25.449Z,90.24
2022-12-04T13:29:32.529Z,89.33
2022-12-04T13:32:49.981Z,89.88
2022-12-04T13:36:02.488Z,89.54
2022-12-04T13:38:58.239Z,89.56
2022-12-04T13:41:28.119Z,89.67
2022-12-04T13:43:58.973Z,90.46
2022-12-04T13:46:39.489Z,89.80
2022-12-04T13:49:25.660Z,90.41
2022-12-04T13:51:54.004Z,90.75
2022-12-04T13:54:24.956Z,90.27
2022-12-04T13:56:58.122Z,90.95
2022-12-04T13:59:28.146Z,90.10
2022-12-04T14:02:02.267Z,90.23
2022-12-04T14:04:36.361Z,89.81
2022-12-04T14:07:05.067Z,90.22
2022-12-04T14:09:44.260Z,91.01
2022-12-04T14:12:15.451Z,91.06
2022-12-04T14:14:52.877Z,90.34
2022-12-04T14:17:31.327Z,90.22
2022-12-04T14:20:08.413Z,91.21
2022-12-04T14:22:42.572Z,89.75
2022-12-04T14:25:33.252Z,90.68
2022-12-04T14:28:00.750Z,90.46
2022-12-04T14:30:39.119Z,90.00
2022-12-04T14:33:23.123Z,90.66
2022-12-04T14:36:02.404Z,89.62
2022-12-04T14:38:30.239Z,90.49
2022-12-04T14:40:58.414Z,89.80
2022-12-04T14:43:32.048Z,90.35
2022-12-04T14:46:08.003Z,89.66
2022-12-04T14:49:29.047Z,90.62
2022-12-04T14:52:13.148Z,90.73
2022-12-04T14:54:53.047Z,90.69
2022-12-04T14:57:57.663Z,90.39
2022-12-04T15:00:25.425Z,90.78
2022-12-04T15:02:57.517Z,90.33
2022-12-04T15:05:30.594Z,90.75
2022-12-04T15:08:02.728Z,90.16
2022-12-04T15:10:52.113Z,90.48
2022-12-04T15:13:30.371Z,90.89
2022-12-04T15:15:58.551Z,91.13
2022-12-04T15:18:25.604Z,90.79
2022-12-04T15:20:58.594Z,90.83
2022-12-04T15:23:38.949Z,91.84
2022-12-04T15:26:20.884Z,90.82
2022-12-04T15:29:01.879Z,90.71
2022-12-04T15:31:40.609Z,91.05
2022-12-04T15:34:14.844Z,91.16
2022-12-04T15:37:07.752Z,90.89
2022-12-04T15:39:37.912Z,91.56
2022-12-04T15:42:21.355Z,90.88
2022-12-04T15:45:25.565Z,90.77
2022-12-04T15:47:54.772Z,90.73
2022-12-04T15:50:28.767Z,90.58
2022-12-04T15:53:20.951Z,90.98
2022-12-04T15:55:55.375Z,90.94
2022-12-04T15:58:29.842Z,91.88
2022-12-04T16:01:09.511Z,91.14
2022-12-04T16:03:42.720Z,91.51
2022-12-04T16:06:31.754Z,91.28
2022-12-04T16:09:20.146Z,91.03
2022-12-04T16:11:56.397Z,90.90
2022-12-04T16:14:23.503Z,91.56
2022-12-04T16:16:53.308Z,90.84
2022-12-04T16:19:34.446Z,91.05
2022-12-04T16:22:04.377Z,91.05
2022-12-04T16:24:31.549Z,91.42
2022-12-04T16:27:00.907Z,92.22
2022-12-04T16:29:30.430Z,91.02
2022-12-04T16:32:02.883Z,91.28
2022-12-04T16:34:30.798Z,91.24
2022-12-04T16:36:58.572Z,92.11
2022-12-04T16:39:25.777Z,90.57
2022-12-04T16:41:52.898Z,91.94
2022-12-04T16:44:20.000Z,91.09
2022-12-04T16:46:47.115Z,91.32
2022-12-04T16:49:14.371Z,91.62
2022-12-04T16:51:49.404Z,90.87
2022-12-04T16:54:16.914Z,91.99
2022-12-04T16:56:44.013Z,92.44
2022-12-04T16:59:12.399Z,91.04
2022-12-04T17:01:47.990Z,91.44
2022-12-04T17:04:16.370Z,91.59
2022-12-04T17:06:44.378Z,91.44
2022-12-04T17:09:12.810Z,91.27
2022-12-04T17:11:40.637Z,91.27
2022-12-04T17:14:08.068Z,91.66
2022-12-04T17:16:42.964Z,91.21
2022-12-04T17:19:11.996Z,92.02
2022-12-04T17:21:40.334Z,92.29
2022-12-04T17:24:08.067Z,91.74
2022-12-04T17:26:35.126Z,91.16
2022-12-04T17:29:02.247Z,90.73
2022-12-04T17:31:29.734Z,91.05
2022-12-04T17:33:57.442Z,90.28
2022-12-04T17:36:27.477Z,91.18
2022-12-04T17:39:01.818Z,91.08
2022-12-04T17:41:29.577Z,91.22
2022-12-04T17:43:58.956Z,91.29
2022-12-04T17:46:26.188Z,90.60
2022-12-04T17:48:57.018Z,91.11
2022-12-04T17:51:25.880Z,90.89
2022-12-04T17:53:55.927Z,91.38
2022-12-04T17:56:24.575Z,91.03
2022-12-04T17:58:52.013Z,91.39
2022-12-04T18:01:23.878Z,90.92
2022-12-04T18:03:57.825Z,91.11
2022-12-04T18:06:27.420Z,90.59
2022-12-04T18:08:54.670Z,91.42
2022-12-04T18:11:25.732Z,91.19
2022-12-04T18:14:04.830Z,90.95
2022-12-04T18:16:38.311Z,91.50
2022-12-04T18:19:06.072Z,90.94
2022-12-04T18:21:34.470Z,91.97
2022-12-04T18:24:04.905Z,92.36
2022-12-04T18:26:41.752Z,91.48
2022-12-04T18:29:14.605Z,91.42
2022-12-04T18:31:41.995Z,92.65
2022-12-04T18:34:09.730Z,92.21
2022-12-04T18:36:39.516Z,91.88
2022-12-04T18:39:12.045Z,92.21
2022-12-04T18:41:39.077Z,92.50
2022-12-04T18:44:06.429Z,92.49
2022-12-04T18:46:33.654Z,92.43
2022-12-04T18:49:01.351Z,92.73
2022-12-04T18:51:39.538Z,93.02
2022-12-04T18:54:17.499Z,93.26
2022-12-04T18:56:45.015Z,93.39
2022-12-04T18:59:23.666Z,92.83
2022-12-04T19:01:51.854Z,93.12
2022-12-04T19:04:21.956Z,93.77
2022-12-04T19:06:53.531Z,93.36
2022-12-04T19:10:10.095Z,93.81
2022-12-04T19:12:14.133Z,94.11
2022-12-04T19:14:41.294Z,93.46
2022-12-04T19:17:08.983Z,94.15
2022-12-04T19:19:36.187Z,94.14
2022-12-04T19:22:04.564Z,94.57
2022-12-04T19:24:31.691Z,94.49
2022-12-04T19:26:58.788Z,94.21
2022-12-04T19:29:25.881Z,94.19
2022-12-04T19:31:58.850Z,94.50
2022-12-04T19:34:26.865Z,94.46
2022-12-04T19:36:57.015Z,94.49
2022-12-04T19:39:24.107Z,94.87
2022-12-04T19:41:52.667Z,94.69
2022-12-04T19:47:10.374Z,95.20
2022-12-04T19:49:37.436Z,94.49
2022-12-04T19:52:05.386Z,94.41
2022-12-04T19:54:32.450Z,94.62
2022-12-04T19:56:59.547Z,94.75
2022-12-04T19:59:29.451Z,94.93
2022-12-04T20:01:59.053Z,94.69
2022-12-04T20:04:26.238Z,94.79
2022-12-04T20:06:53.418Z,94.71
2022-12-04T20:09:22.312Z,94.54
2022-12-04T20:11:49.827Z,94.35
2022-12-04T20:14:17.846Z,94.83
2022-12-04T20:16:45.237Z,94.56
2022-12-04T20:19:18.262Z,94.84
2022-12-04T20:21:46.158Z,94.54
2022-12-04T20:24:16.720Z,95.41
2022-12-04T20:26:45.579Z,94.67
2022-12-04T20:29:15.978Z,94.81
2022-12-04T20:31:45.796Z,94.18
2022-12-04T20:34:16.792Z,94.97
2022-12-04T20:36:46.175Z,94.46
2022-12-04T20:39:15.303Z,94.32
2022-12-04T20:41:42.966Z,94.59
2022-12-04T20:44:17.370Z,94.38
2022-12-04T20:46:45.057Z,95.05
2022-12-04T20:49:21.753Z,94.37
2022-12-04T20:51:51.042Z,94.61
2022-12-04T20:54:21.118Z,95.07
2022-12-04T20:56:49.200Z,94.70
2022-12-04T20:59:18.568Z,95.15
2022-12-04T21:01:46.495Z,94.81
2022-12-04T21:04:13.641Z,94.69
2022-12-04T21:06:42.363Z,94.72
2022-12-04T21:09:20.406Z,94.68
2022-12-04T21:11:53.475Z,95.11
2022-12-04T21:14:43.512Z,95.10
2022-12-04T21:17:18.705Z,95.09
2022-12-04T21:19:49.092Z,94.82
2022-12-04T21:22:18.390Z,94.82
2022-12-04T21:24:45.475Z,94.75
2022-12-04T21:27:17.379Z,94.41
2022-12-04T21:29:48.466Z,94.31
2022-12-04T21:32:19.046Z,94.73
2022-12-04T21:34:46.109Z,94.76
2022-12-04T21:37:13.552Z,94.17
2022-12-04T21:39:41.869Z,95.14
2022-12-04T21:42:27.302Z,94.80
2022-12-04T21:44:54.389Z,95.00
2022-12-04T21:47:21.478Z,94.25
2022-12-04T21:49:48.639Z,95.49
2022-12-04T21:52:16.886Z,94.96
2022-12-04T21:54:44.155Z,94.84
2022-12-04T21:57:11.267Z,94.94
2022-12-04T21:59:38.363Z,95.38
2022-12-04T22:02:05.595Z,94.70
2022-12-04T22:04:32.786Z,95.40
2022-12-04T22:06:59.822Z,96.01
2022-12-04T22:09:26.913Z,95.38
2022-12-04T22:11:54.047Z,95.34
2022-12-04T22:14:21.178Z,94.67
2022-12-04T22:16:51.746Z,95.85
2022-12-04T22:19:19.225Z,95.25
2022-12-04T22:21:46.309Z,95.01
2022-12-04T22:24:14.358Z,94.95
2022-12-04T22:26:41.401Z,95.41
2022-12-04T22:29:41.530Z,95.28
2022-12-04T22:31:55.689Z,94.94
2022-12-04T22:34:22.873Z,94.84
2022-12-04T22:36:50.382Z,95.12
2022-12-04T22:39:17.439Z,95.16
2022-12-04T22:41:44.486Z,94.94
2022-12-04T22:44:11.531Z,94.90
2022-12-04T22:46:38.667Z,94.48
2022-12-04T22:49:05.840Z,94.72
2022-12-04T22:51:32.934Z,95.01
2022-12-04T22:54:00.050Z,95.25
2022-12-04T22:56:32.150Z,95.81
2022-12-04T22:59:00.425Z,94.95
2022-12-04T23:01:30.901Z,95.63
2022-12-04T23:03:59.356Z,95.10
2022-12-04T23:06:29.240Z,95.34
2022-12-04T23:09:02.298Z,94.87
2022-12-04T23:11:29.466Z,94.90
2022-12-04T23:14:00.578Z,95.10
2022-12-04T23:16:30.315Z,95.15
2022-12-04T23:18:58.583Z,94.91
2022-12-04T23:21:27.000Z,95.31
2022-12-04T23:23:55.694Z,94.74
2022-12-04T23:26:27.220Z,95.23
2022-12-04T23:28:55.869Z,95.33
2022-12-04T23:31:23.433Z,95.25
2022-12-04T23:33:50.867Z,95.44
2022-12-04T23:36:18.011Z,96.02
2022-12-04T23:38:45.851Z,95.12
2022-12-04T23:41:18.519Z,94.92
2022-12-04T23:43:47.488Z,94.52
2022-12-04T23:46:18.005Z,94.42
2022-12-04T23:48:46.185Z,94.37
2022-12-04T23:51:16.755Z,94.79
2022-12-04T23:53:44.815Z,94.44
2022-12-04T23:56:24.203Z,95.07
2022-12-04T23:58:54.010Z,94.85
